Data Entry Status of Reservoirs as on 25/08/2019 (Average Data)
S.NO Unit Name District Reservoir Name Current Capacity
in T.M.C.
Current Level
in Feet
Inflow
in Cusecs
Outflow
in Cusecs
Last Entry Time
Updated
1 CE , Godavari Delta Systems, HQ : Dowlaiswaram East Godavari Godavari Delta System 2.93 45.0 275411.0 277032.0 25/08/2019 10:44
2 CE , Godavari Delta Systems, HQ : Dowlaiswaram East Godavari YELERU 16.5 270.41 515.0 515.0 25/08/2019 10:40
3 CE , Krishna Delta System, HQ : Vijayawada Guntur Dr.KLRS Pulichintala 44.18 173.98 20512.0 4726.0 25/08/2019 10:40
4 CE , Krishna Delta System, HQ : Vijayawada Krishna Krishna Delta System 3.07 57.05 21827.0 21827.0 25/08/2019 10:42
5 CE Minor, Vijayawada Chittor Pedderu 0.16 1549.04 0.0 0.0 25/08/2019 06:00
6 CE , North Coast, HQ : Visakhapatnam Srikakulam Vamshadhara 0.612 125.0 9781.0 9781.0 25/08/2019 10:41
7 CE , North Coast, HQ : Visakhapatnam Vizianagaram Thotapalli Reservoir 1.677 339.9 2475.0 3100.0 25/08/2019 06:00
8 CE , (Projects) Irrigation, Kadapa, HQ : Kadapa Kadapa Buggavanka Reservoir 0.262 594.152 52.0 0.0 25/08/2019 08:45
9 CE , (Projects) Irrigation, Kadapa, HQ : Kadapa Kadapa SPVB Reservoir(Brahmamgari Mattam) 1.643 622.991 0.0 23.0 25/08/2019 06:00
10 CE , (Projects) Irrigation, Kadapa, HQ : Kadapa Kadapa Veligallu Project 1.12 1338.896 0.0 0.0 25/08/2019 08:30
11 CE , (Projects) Irrigation, Kurnool, HQ : Kurnool Kurnool ALAGANURU BALANCING RESERVOIR 0.6 845.256 578.0 0.0 25/08/2019 07:00
12 CE , (Projects) Irrigation, Kurnool, HQ : Kurnool Kurnool Gajuladinne Project 1.104 1220.0726 231.0 40.0 25/08/2019 06:00
13 CE , (Projects) Irrigation, Kurnool, HQ : Kurnool Kurnool Gorakallu 7.6724 823.32 6957.0 8453.0 25/08/2019 06:00
14 CE , (Projects) Irrigation, Kurnool, HQ : Kurnool Kurnool Owk Reservoir 3.013 734.261 7354.0 9398.0 25/08/2019 06:00
15 CE , (Projects) Irrigation, Kurnool, HQ : Kurnool Kurnool SRISAILAM 202.97 882.7 17576.0 48773.0 25/08/2019 10:39
16 CE , (Projects) Irrigation, Kurnool, HQ : Kurnool Kurnool Sunkesula 0.845 954.72 7500.0 6953.0 25/08/2019 06:00
17 CE , (Projects) Irrigation, Kurnool, HQ : Kurnool Kurnool Veligodu Balancing Reservoir 15.0 864.63 4698.0 3020.0 25/08/2019 10:45
18 CE , (Projects) Ongole, HQ : Ongole Guntur NAGARJUNA SAGAR 310.55 589.5 24595.0 41834.0 25/08/2019 10:39
19 CE , (Projects) Ongole, HQ : Ongole Prakasam Rallapadu Reservoir 0.0 0.0 0.0 0.0 25/08/2019 06:00
20 CE , TGP Tirupathi, HQ : Tirupati Nellore KANDALERU 3.83 192.5 0.0 157.0 25/08/2019 10:46
21 CE , TGP Tirupathi, HQ : Tirupati Nellore SOMASILA 16.12 284.64 30605.0 385.0 25/08/2019 10:45
22 ENC Irrigation, HQ: Vijayawada Ananthapur PABR 1.365 1392.54 417.0 70.0 25/08/2019 12:00
23 ENC Irrigation, HQ: Vijayawada Kadapa Chitravathi Balancing Reservoir 0.5955 931.92 131.0 40.0 25/08/2019 06:00
24 Flood Monitoring Cell, Vijayawada Karnataka ALMATTI 128.19 1704.72 23991.0 23991.0 25/08/2019 10:36
25 Flood Monitoring Cell, Vijayawada Karnataka NARAYANAPUR 37.12 1614.34 25288.0 7783.0 25/08/2019 10:36
26 Flood Monitoring Cell, Vijayawada Karnataka TUNGABHADRA 100.86 1633.0 11314.0 11314.0 25/08/2019 10:38
27 Flood Monitoring Cell, Vijayawada Maharastra Jaikwad 93.83 1519.84 274.0 3281.0 25/08/2019 10:41
28 Flood Monitoring Cell, Vijayawada Maharastra Ujjaini 117.24 1630.0 4074.0 4701.0 25/08/2019 10:37
29 Flood Monitoring Cell, Vijayawada Telangana JURALA 9.46 1044.69 6226.0 7187.0 25/08/2019 10:37
30 Flood Monitoring Cell, Vijayawada Telangana Sri Pada Yellampally 14.23 478.05 3162.0 11823.0 25/08/2019 10:46
31 Flood Monitoring Cell, Vijayawada Telangana SRI RAM SAGAR 17.74 1063.3 2012.0 400.0 25/08/2019 10:43
Not Updated
32 Boggulavagu 0.371 159.05 0.0 0.0 22/08/2019 09:37
33 CE , Godavari Delta Systems, HQ : Dowlaiswaram East Godavari Maddigedda Reservoir Project 0.13 593.18 35.0 0.0 13/07/2019 07:00
34 CE , Godavari Delta Systems, HQ : Dowlaiswaram East Godavari Pampa Reservoir 0.0167 82.5 30.0 0.0 17/07/2019 10:45
35 CE , Godavari Delta Systems, HQ : Dowlaiswaram East Godavari Subbareddy Sagar 0.0538 255.9 111.0 0.0 13/07/2019 07:00
36 CE , Godavari Delta Systems, HQ : Dowlaiswaram Krishna GONELAVAGU RESERVOIR 0.732 335.61 0.0 66.0 08/02/2019 06:00
37 CE , Godavari Delta Systems, HQ : Dowlaiswaram West Godavari Kovvada Kalva 0.027 264.0 0.0 0.0 05/07/2019 06:00
38 CE , Godavari Delta Systems, HQ : Dowlaiswaram West Godavari Tammileru 0.355 327.77 23.0 0.0 24/08/2019 12:18
39 CE , Godavari Delta Systems, HQ : Dowlaiswaram West Godavari Yerra Kalva 1.0398 256.594 0.0 100.0 24/08/2019 11:58
40 CE , Krishna Delta System, HQ : Vijayawada Krishna Muniyeru Anicut 0.01 217.81 100.0 0.0 30/01/2019 06:00
41 CE Minor, Vijayawada Ananthapur Upper Pennar Anicut 0.0 1716.56 0.0 0.0 24/08/2019 12:06
42 CE Minor, Vijayawada Chittor KALYANI DAM 0.0435 835.0 0.0 3.1 26/06/2019 09:00
43 CE Minor, Vijayawada Nellore Nellore Anicut 0.01 10.6 0.0 0.0 05/10/2018 06:00
44 CE Minor, Vijayawada West Godavari Jalleru 0.31 711.29 0.0 0.0 31/10/2018 16:00
45 CE , North Coast, HQ : Visakhapatnam Srikakulam Madduvalasa 1.394 204.99 410.0 410.0 24/08/2019 06:00
46 CE , North Coast, HQ : Visakhapatnam Srikakulam Narayanapuram Anicut 0.0 88.0 50.0 50.0 02/05/2019 07:00
47 CE , North Coast, HQ : Visakhapatnam Visahakapatnam Konam Reservoir Project 0.085 297.496 2.0 30.0 27/03/2019 06:00
48 CE , North Coast, HQ : Visakhapatnam Visahakapatnam Mahadrigadda Reservoir 0.228 50.2 0.0 0.0 22/10/2018 06:00
49 CE , North Coast, HQ : Visakhapatnam Visahakapatnam Raiwada Reservoir Project 0.2 331.44 0.0 50.0 03/04/2019 07:00
50 CE , North Coast, HQ : Visakhapatnam Visahakapatnam Tenneti Viswanadham Pedderu 0.192 439.028 0.0 20.0 15/02/2019 06:00
51 CE , North Coast, HQ : Visakhapatnam Visahakapatnam Thandava Reservoir Project 0.27 345.5 37.0 0.0 06/12/2018 06:00
52 CE , North Coast, HQ : Visakhapatnam Vizianagaram Andra Reservoir 0.00589 439.81 0.0 0.0 26/04/2019 07:20
53 CE , North Coast, HQ : Visakhapatnam Vizianagaram Peddagadda 0.245 674.409 26.0 75.0 24/08/2019 12:11
54 CE , North Coast, HQ : Visakhapatnam Vizianagaram Thatipudi Reservoir 0.705 266.099 190.0 20.48 24/08/2019 12:09
55 CE , North Coast, HQ : Visakhapatnam Vizianagaram Vengalarayasagar Project 0.979 519.1929 160.0 250.0 24/08/2019 12:08
56 CE , North Coast, HQ : Visakhapatnam Vizianagaram Vottigedda Reservoir 0.062 369.2 0.0 0.0 28/06/2019 06:00
57 CE, (Projects) HNSS, Ananthapur Ananthapur Bhairavani Tippa 0.0 1629.1 0.0 0.0 24/08/2019 12:06
58 CE, (Projects) HNSS, Ananthapur Ananthapur CHAGALLU BALANCING RESERVOIR 0.0 0.0 0.0 0.0 06/06/2019 08:25
59 CE, (Projects) HNSS, Ananthapur Ananthapur CHENNARAYA SWAMI GUDI PROJECT NA NA NA NA NA
60 CE, (Projects) HNSS, Ananthapur Ananthapur Jeedipalli Reservoir 1.402 1518.9 810.0 0.0 24/08/2019 06:00
61 CE, (Projects) HNSS, Ananthapur Ananthapur Mid Pennar 0.161 1129.9 0.0 0.0 31/07/2019 08:00
62 CE, (Projects) HNSS, Ananthapur Ananthapur Yogivemana Reservoir Project 0.336 1238.32 102.0 0.0 10/06/2019 07:15
63 CE, (Projects) HNSS, Ananthapur Kurnool krishnagiri 0.025 1199.95 60.0 0.0 10/08/2019 06:00
64 CE , (Projects) Irrigation, Kadapa, HQ : Kadapa Kadapa Annamayya 0.378 631.7257 0.0 4.0 24/08/2019 12:04
65 CE , (Projects) Irrigation, Kadapa, HQ : Kadapa Kadapa Badvel Tank NA NA NA NA NA
66 CE , (Projects) Irrigation, Kadapa, HQ : Kadapa Kadapa GANDIKOTA RESERVOIR 4.09 203.65 0.0 300.0 13/12/2018 09:05
67 CE , (Projects) Irrigation, Kadapa, HQ : Kadapa Kadapa Jerrikona Reservoir NA NA NA NA NA
68 CE , (Projects) Irrigation, Kadapa, HQ : Kadapa Kadapa Mylavaram reservoir 0.948 624.573 0.0 159.0 02/01/2019 10:00
69 CE , (Projects) Irrigation, Kadapa, HQ : Kadapa Kadapa Paidipalem Reservoir 1.606 858.25 0.0 200.0 26/02/2019 07:00
70 CE , (Projects) Irrigation, Kadapa, HQ : Kadapa Kadapa Subsidary Reservoir II of TGP Main Canal 1.1098 705.053 0.0 20.0 27/12/2018 07:30
71 CE , (Projects) Irrigation, Kadapa, HQ : Kadapa Kadapa Subsidary Reservoir I of TGP Main Canal 0.62137 697.671 0.0 20.0 29/12/2018 07:30
72 CE , (Projects) Irrigation, Kadapa, HQ : Kadapa Kadapa Upper Sagileru Anicut 0.0 0.0 0.0 0.0 26/10/2018 06:00
73 CE , (Projects) Irrigation, Kurnool, HQ : Kurnool Kurnool Varadaraja Swamy Gudi Project 0.0142 1157.32 0.0 0.0 14/11/2018 10:00
74 CE , (Projects) Irrigation, Kurnool, HQ : Kurnool Kurnool ZURRERU RESERVOIR NA NA NA NA NA
75 CE , (Projects) Ongole, HQ : Ongole Prakasam Buggavagu Resrvoir 2.61 465.9 2915.0 2027.0 27/03/2019 06:00
76 CE , (Projects) Ongole, HQ : Ongole Prakasam Cumbum Tank 0.0 645.93 0.0 0.0 24/08/2019 12:13
77 CE , (Projects) Ongole, HQ : Ongole Prakasam Gundlakamma Project 0.483 58.87 0.0 0.0 16/07/2019 09:00
78 CE , (Projects) Ongole, HQ : Ongole Prakasam Mopadu Reservoir 0.0 299.51 0.0 0.0 24/08/2019 12:15
79 CE , (Projects) Ongole, HQ : Ongole Prakasam Paleru Bitragunta Anicut System 0.0 0.0 0.0 0.0 03/03/2019 07:00
80 CE , (Projects) Ongole, HQ : Ongole Prakasam Ramatheertham Balancing Reservoir 0.359 76.1 42.0 243.0 10/11/2016 08:00
81 CE , (Projects) Ongole, HQ : Ongole Prakasam Veeraraghavunikota Anicut System 0.0 0.0 0.0 0.0 10/07/2019 07:00
82 CE , TGP Tirupathi, HQ : Tirupati Bahuda Reservoir Project 0.063 1989.5 0.0 0.0 24/08/2019 10:00
83 CE , TGP Tirupathi, HQ : Tirupati Chittor Araniar Project 0.026 253.15 0.0 0.0 27/06/2019 06:00
84 CE , TGP Tirupathi, HQ : Tirupati Chittor Krishnapuram Reservoir 0.072 679.6 38.0 0.0 22/11/2018 18:00
85 CE , TGP Tirupathi, HQ : Tirupati Chittor Mallimadugu Reservoir Project 0.0242 353.3 50.0 0.0 24/08/2019 06:00
86 CE , TGP Tirupathi, HQ : Tirupati Nellore Gandipalem 0.0 450.23 0.0 0.0 24/08/2019 12:16
87 CE , TGP Tirupathi, HQ : Tirupati Nellore Kalangi Reservoir Project 0.0 198.0 0.0 0.0 02/09/2018 15:05
88 CE , TGP Tirupathi, HQ : Tirupati Nellore Kanigir Reservoir 2.06 95.22 1185.0 1160.0 12/12/2018 10:00
89 CE , TGP Tirupathi, HQ : Tirupati Nellore Nellore Tank 0.317 64.22 150.0 0.0 24/11/2018 07:00
90 CE , TGP Tirupathi, HQ : Tirupati Nellore Survepalli Reservoir 0.4 19.72 100.0 200.0 11/03/2019 08:51
91 Enc Dowaleshwaram East Godavari Suram Palem 0.06477 329.72 0.0 44.94 01/12/2018 06:00
92 ENC Irrigation, HQ: Vijayawada Nellore Swarnamukhi Barrage 0.0 19.78 0.0 0.0 02/10/2018 14:00
93 ENC PIP East Godavari Bhupati Palem 0.65 669.29 148.124 148.124 12/12/2018 06:00
94 ENC PIP East Godavari Musurimalli 0.56 378.93 400.0 550.0 24/08/2019 11:56

Data Entry Status of Reservoirs as on 25/08/2019 (Instant Data)
S.NO Unit District Reservoir Name Current Capacity
in T.M.C.
Current Level
in Feet
Inflow
in Cusecs
Outflow
in Cusecs
Last Entry Time
Updated
1 CE , Krishna Delta System, HQ : Vijayawada Guntur Dr.KLRS Pulichintala 44.181 173.98 1000.0 1000.0 25/08/2019 12:00
2 CE Minor, Vijayawada Chittor Pedderu 0.16 1549.04 0.0 0.0 25/08/2019 08:00
3 CE , North Coast, HQ : Visakhapatnam Visahakapatnam Mahadrigadda Reservoir 0.068 46.3 0.0 0.0 25/08/2019 06:00
4 CE , North Coast, HQ : Visakhapatnam Vizianagaram Thotapalli Reservoir 1.677 339.9 2450.0 3100.0 25/08/2019 06:00
5 CE, (Projects) HNSS, Ananthapur Ananthapur Bhairavani Tippa 0.0 1630.92 0.0 0.0 25/08/2019 00:00
6 CE , (Projects) Irrigation, Kadapa, HQ : Kadapa Kadapa Buggavanka Reservoir 0.262 594.152 52.0 0.0 25/08/2019 08:00
7 CE , (Projects) Irrigation, Kadapa, HQ : Kadapa Kadapa SPVB Reservoir(Brahmamgari Mattam) 1.643 622.991 0.0 23.0 25/08/2019 08:00
8 CE , (Projects) Irrigation, Kadapa, HQ : Kadapa Kadapa Veligallu Project 1.12 1338.896 0.0 0.0 25/08/2019 08:00
9 CE , (Projects) Irrigation, Kurnool, HQ : Kurnool Kurnool Gajuladinne Project 1.104 1220.0726 231.0 40.0 25/08/2019 07:00
10 CE , (Projects) Irrigation, Kurnool, HQ : Kurnool Kurnool SRISAILAM 202.9673 882.7 21987.0 24426.0 25/08/2019 11:00
11 CE , (Projects) Ongole, HQ : Ongole Guntur NAGARJUNA SAGAR 309.9534 589.3 0.0 20667.0 25/08/2019 12:00
12 ENC Irrigation, HQ: Vijayawada Ananthapur PABR 1.365 1392.54 417.0 70.0 25/08/2019 10:00
Not Updated
13 Boggulavagu NA NA NA NA NA
14 CE , Godavari Delta Systems, HQ : Dowlaiswaram East Godavari Maddigedda Reservoir Project 0.361 610.73 40.0 4.0 17/12/2018 07:00
15 CE , Godavari Delta Systems, HQ : Dowlaiswaram East Godavari Pampa Reservoir 0.015 82.1 0.0 0.0 08/07/2019 08:00
16 CE , Godavari Delta Systems, HQ : Dowlaiswaram East Godavari Subbareddy Sagar 0.0253 247.31 8.0 0.0 17/12/2018 07:00
17 CE , Godavari Delta Systems, HQ : Dowlaiswaram East Godavari YELERU 12.46 259.62 11.0 269.0 02/05/2019 07:00
18 CE , Godavari Delta Systems, HQ : Dowlaiswaram Krishna GONELAVAGU RESERVOIR 230.0 326.88 11.5 0.0 30/11/2018 06:00
19 CE , Godavari Delta Systems, HQ : Dowlaiswaram West Godavari Kovvada Kalva 0.027 264.0 0.0 0.0 05/07/2019 00:00
20 CE , Godavari Delta Systems, HQ : Dowlaiswaram West Godavari Tammileru 123.0 327.44 0.0 0.0 04/08/2019 00:00
21 CE , Godavari Delta Systems, HQ : Dowlaiswaram West Godavari Yerra Kalva 3.142 269.029 0.0 0.0 27/09/2018 15:00
22 CE , Krishna Delta System, HQ : Vijayawada Krishna Muniyeru Anicut 0.03 221.3 928.0 678.0 02/09/2018 15:03
23 CE Minor, Vijayawada Ananthapur Upper Pennar Anicut NA NA NA NA NA
24 CE Minor, Vijayawada Chittor KALYANI DAM NA NA NA NA NA
25 CE Minor, Vijayawada Nellore Nellore Anicut 0.0 19.78 0.0 0.0 03/09/2018 01:00
26 CE Minor, Vijayawada West Godavari Jalleru NA NA NA NA NA
27 CE , North Coast, HQ : Visakhapatnam Srikakulam Madduvalasa 1.394 204.99 410.0 510.0 24/08/2019 10:00
28 CE , North Coast, HQ : Visakhapatnam Srikakulam Narayanapuram Anicut 0.0 88.0 50.0 50.0 02/05/2019 07:00
29 CE , North Coast, HQ : Visakhapatnam Visahakapatnam Konam Reservoir Project 0.085 297.496 0.0 30.0 27/03/2019 08:00
30 CE , North Coast, HQ : Visakhapatnam Visahakapatnam Raiwada Reservoir Project 0.293 333.7 50.0 50.0 07/12/2018 15:00
31 CE , North Coast, HQ : Visakhapatnam Visahakapatnam Tenneti Viswanadham Pedderu 0.244 439.52 52.0 0.0 24/12/2018 11:00
32 CE , North Coast, HQ : Visakhapatnam Visahakapatnam Thandava Reservoir Project 0.578 351.05 90.0 0.0 02/11/2018 12:00
33 CE , North Coast, HQ : Visakhapatnam Vizianagaram Andra Reservoir 0.00589 439.81 0.0 0.0 26/04/2019 07:00
34 CE , North Coast, HQ : Visakhapatnam Vizianagaram Peddagadda 0.255 674.93 5.0 5.0 18/02/2019 10:00
35 CE , North Coast, HQ : Visakhapatnam Vizianagaram Thatipudi Reservoir 2.9 293.5 140.48 140.48 10/11/2016 10:44
36 CE , North Coast, HQ : Visakhapatnam Vizianagaram Vengalarayasagar Project 0.56 510.5611 0.0 0.0 02/07/2019 10:00
37 CE , North Coast, HQ : Visakhapatnam Vizianagaram Vottigedda Reservoir 0.062 369.2 0.0 0.0 28/06/2019 10:00
38 CE, (Projects) HNSS, Ananthapur Ananthapur CHAGALLU BALANCING RESERVOIR NA NA NA NA NA
39 CE, (Projects) HNSS, Ananthapur Ananthapur CHENNARAYA SWAMI GUDI PROJECT NA NA NA NA NA
40 CE, (Projects) HNSS, Ananthapur Ananthapur Jeedipalli Reservoir 1.402 1518.9 810.0 0.0 24/08/2019 06:00
41 CE, (Projects) HNSS, Ananthapur Ananthapur Mid Pennar 0.462 1147.0 0.0 4.0 13/02/2019 15:00
42 CE, (Projects) HNSS, Ananthapur Ananthapur Yogivemana Reservoir Project 0.55 1246.65 0.0 0.0 25/09/2018 06:00
43 CE, (Projects) HNSS, Ananthapur Kurnool krishnagiri NA NA NA NA NA
44 CE , (Projects) Irrigation, Kadapa, HQ : Kadapa Kadapa Annamayya 0.56513 637.467 0.0 4.0 30/01/2019 08:00
45 CE , (Projects) Irrigation, Kadapa, HQ : Kadapa Kadapa GANDIKOTA RESERVOIR 4.2 203.73 0.0 320.0 10/12/2018 08:00
46 CE , (Projects) Irrigation, Kadapa, HQ : Kadapa Kadapa Jerrikona Reservoir NA NA NA NA NA
47 CE , (Projects) Irrigation, Kadapa, HQ : Kadapa Kadapa Mylavaram reservoir 2.251 635.039 0.0 369.0 15/11/2018 17:00
48 CE , (Projects) Irrigation, Kadapa, HQ : Kadapa Kadapa Paidipalem Reservoir NA NA NA NA NA
49 CE , (Projects) Irrigation, Kadapa, HQ : Kadapa Kadapa Subsidary Reservoir II of TGP Main Canal 0.7583 714.44 0.0 0.0 21/02/2019 07:00
50 CE , (Projects) Irrigation, Kadapa, HQ : Kadapa Kadapa Subsidary Reservoir I of TGP Main Canal 0.48157 711.07 0.0 0.0 21/02/2019 07:00
51 CE , (Projects) Irrigation, Kadapa, HQ : Kadapa Kadapa Upper Sagileru Anicut NA NA NA NA NA
52 CE , (Projects) Irrigation, Kurnool, HQ : Kurnool Kurnool ALAGANURU BALANCING RESERVOIR 0.181 833.94 0.0 0.0 08/08/2019 13:00
53 CE , (Projects) Irrigation, Kurnool, HQ : Kurnool Kurnool Gorakallu 6.0349 810.23 0.0 878.0 02/11/2018 12:00
54 CE , (Projects) Irrigation, Kurnool, HQ : Kurnool Kurnool Owk Reservoir 1.73 720.14435 85.0 45.0 21/11/2018 08:00
55 CE , (Projects) Irrigation, Kurnool, HQ : Kurnool Kurnool Sunkesula 1.11 957.02 1058.0 1058.0 02/11/2018 16:00
56 CE , (Projects) Irrigation, Kurnool, HQ : Kurnool Kurnool Varadaraja Swamy Gudi Project 0.0142 1157.32 0.0 0.0 14/11/2018 12:00
57 CE , (Projects) Irrigation, Kurnool, HQ : Kurnool Kurnool Veligodu Balancing Reservoir 12.835 860.07 0.0 4160.0 09/10/2018 08:00
58 CE , (Projects) Irrigation, Kurnool, HQ : Kurnool Kurnool ZURRERU RESERVOIR 0.034 844.5 0.0 0.0 02/11/2018 13:00
59 CE , (Projects) Ongole, HQ : Ongole Prakasam Buggavagu Resrvoir 2.562 466.4 0.0 0.0 12/11/2018 06:00
60 CE , (Projects) Ongole, HQ : Ongole Prakasam Cumbum Tank 0.0 645.76 0.0 0.0 17/04/2019 08:00
61 CE , (Projects) Ongole, HQ : Ongole Prakasam Gundlakamma Project 1.418 69.94 0.0 0.0 19/02/2019 13:00
62 CE , (Projects) Ongole, HQ : Ongole Prakasam Mopadu Reservoir 0.0 0.0 0.0 0.0 05/07/2019 09:00
63 CE , (Projects) Ongole, HQ : Ongole Prakasam Paleru Bitragunta Anicut System 0.0 0.0 0.0 0.0 03/03/2019 06:00
64 CE , (Projects) Ongole, HQ : Ongole Prakasam Rallapadu Reservoir NA NA NA NA NA
65 CE , (Projects) Ongole, HQ : Ongole Prakasam Ramatheertham Balancing Reservoir 0.802 263.12 1144.0 243.0 24/04/2019 07:00
66 CE , (Projects) Ongole, HQ : Ongole Prakasam Veeraraghavunikota Anicut System 0.0 0.0 0.0 0.0 10/07/2019 08:00
67 CE , TGP Tirupathi, HQ : Tirupati Bahuda Reservoir Project 0.114 1996.0 0.0 0.0 07/03/2019 11:00
68 CE , TGP Tirupathi, HQ : Tirupati Chittor Araniar Project NA NA NA NA NA
69 CE , TGP Tirupathi, HQ : Tirupati Chittor Krishnapuram Reservoir 0.072 679.6 38.0 0.0 22/11/2018 07:00
70 CE , TGP Tirupathi, HQ : Tirupati Chittor Mallimadugu Reservoir Project 0.0242 353.3 50.0 0.0 24/08/2019 11:00
71 CE , TGP Tirupathi, HQ : Tirupati Nellore Gandipalem 0.55 21.02 0.0 0.0 03/09/2018 00:00
72 CE , TGP Tirupathi, HQ : Tirupati Nellore Kalangi Reservoir Project 0.04 210.0 0.0 0.0 17/12/2018 08:00
73 CE , TGP Tirupathi, HQ : Tirupati Nellore KANDALERU 10.348 215.234 0.0 2433.0 11/02/2019 07:00
74 CE , TGP Tirupathi, HQ : Tirupati Nellore Kanigir Reservoir 0.18 87.7 0.0 0.0 03/09/2018 12:00
75 CE , TGP Tirupathi, HQ : Tirupati Nellore Nellore Tank 0.0 0.0 0.0 0.0 03/09/2018 10:00
76 CE , TGP Tirupathi, HQ : Tirupati Nellore SOMASILA 12.846 279.64 0.0 3555.0 26/02/2019 10:00
77 CE , TGP Tirupathi, HQ : Tirupati Nellore Survepalli Reservoir 0.55 21.02 0.0 0.0 06/10/2018 11:00
78 Enc Dowaleshwaram East Godavari Suram Palem 0.059 328.07 23.0 0.0 06/12/2016 16:00
79 ENC Irrigation, HQ: Vijayawada Kadapa Chitravathi Balancing Reservoir 2.3848 948.118 0.0 40.0 03/02/2019 10:00
80 ENC Irrigation, HQ: Vijayawada Nellore Swarnamukhi Barrage 0.002 19.78 0.0 0.0 19/12/2018 07:00
81 ENC PIP East Godavari Bhupati Palem 0.65 669.29 148.124 148.124 12/12/2018 09:00
82 ENC PIP East Godavari Musurimalli 0.356 369.75 0.0 150.0 26/12/2016 08:00
83 Flood Monitoring Cell, Vijayawada Telangana Sri Pada Yellampally NA NA NA NA NA
84 Flood Monitoring Cell, Vijayawada Telangana SRI RAM SAGAR NA NA NA NA NA

Username Password

Latest Data of levels of Major Reservoirs in the State of Andhra Pradesh

S.NO.
Reservoir
Full Reservoir Level in Ft.
Date and Time
Level in feet
Present Storage
in T.M.C.
Instant Inflow in Cusecs
Instant Outflow in Cusecs
1 SRISAILAM 885.00 25-08-2019 11:00 AM 882.7 202.967 21,987 24,426
2 NAGARJUNA SAGAR 590.00 25-08-2019 12:00 PM 589.3 309.953 0 20,667
Particulars Of Major Reservoirs As On 25/08/2019 @ 06:00 A.M. (Average Readings over past 24 Hours)
Total Storage Cap. of A.P. Reservoirs
Present Storage in T.M.C.
Flood Cushion in T.M.C
Last Year As On
25/08/2018 Storage in T.M.C
S.NO Reservoir Gross Storage
at FRL in T.M.C.
Present Storage
in T.M.C.
Average Inflow
in Cusecs
Average OutFlow
in Cusecs
Flood Cushion
in T.M.C
Last Year As On
25/08/2018
Storage in T.M.C
Basin Name
1 SRI RAM SAGAR 90.313 17.74 2,012 400 72.573 70.67 Godavari Basin
2 JAIKWAD 102.732 93.83 274 3,281 8.902 58.56 Godavari Basin
3 ALMATTI 129.721 128.19 23,991 23,991 1.531 125.65 Krishna Basin
4 NARAYANAPUR 37.646 37.12 25,288 7,783 0.526 36.74 Krishna Basin
5 JURALA 9.657 9.46 6,226 7,187 0.197 9.3 Krishna Basin
6 TUNGABHADRA 100.86 100.86 11,314 11,314 0 96.79 Krishna Basin
7 SRISAILAM 215.807 202.97 17,576 48,773 12.837 205.23 Krishna Basin
8 NAGARJUNA SAGAR 312.045 310.55 24,568 41,834 1.495 251.31 Krishna Basin
9 UJJAINI 117.24 117.24 4,074 4,701 0 113.26 Krishna Basin
10 DR.KLRS PULICHINTALA 45.77 44.18 20,512 4,726 1.59 6.77 Krishna Basin
11 YELERU 24.1 16.5 515 515 7.6 15.18 Other Basin
12 SOMASILA 78 16.12 30,605 385 61.88 13.31 Pennar Basin
13 KANDALERU 68.03 3.83 0 157 64.2 3.9 Pennar Basin
14 VELIGODU BALANCING RESERVOIR 16.95 15 4,698 3,020 1.95 14.93 Pennar Basin
15 CHITRAVATHI BALANCING RESERVOIR 10 0.595 131 40 9.405 1.745 Pennar Basin
Status of Medium Irrigation Projects as on 25/08/2019
S.NO Medium Project Gross Storage
at FRL in T.M.C.
Present Storage
in T.M.C.
Average Inflow
in Cusecs
Average Outflow
in Cusecs
Flood Cushion
in T.M.C
Basin Name
1 MUSURIMALLI 1.6 0 NA NA 1.6 Godavari Basin
2 THATIPUDI RESERVOIR 3.33 0 NA NA 3.33 Gosthani Basin
3 CUMBUM TANK 2.952 0 NA NA 2.952 Gundlakamma Basin
4 BHAIRAVANI TIPPA 2.001 0 NA NA 2.001 Krishna Basin
5 GAJULADINNE PROJECT 4.5 1.104 231 40 3.396 Krishna Basin
6 RALLAPADU RESERVOIR 1.106 0 0 0 1.106 Manneru Basin
7 MOPADU RESERVOIR 2.154 0 NA NA 2.154 Manneru Basin
8 GANDIPALEM 1.88 0 NA NA 1.88 Manneru Basin
9 MADDUVALASA 3.373 0 NA NA 3.373 Nagavali Basin
10 VENGALARAYASAGAR PROJECT 1.683 0 NA NA 1.683 Nagavali Basin
11 PEDDAGADDA 1.07 0 NA NA 1.07 Nagavali Basin
12 ANNAMAYYA 2.231 0 NA NA 2.231 Pennar Basin
13 VELIGALLU PROJECT 4.64 1.12 0 0 3.52 Pennar Basin
14 UPPER PENNAR ANICUT 1.811 0 NA NA 1.811 Pennar Basin
15 RAIWADA RESERVOIR PROJECT 3.6 0 NA NA 3.6 Sarada Basin
16 TAMMILERU 3 0 NA NA 3 Tammileru Basin
17 YERRA KALVA 4.43 0 NA NA 4.43 Yerra Kalva Basin

Daily Canal Releases of Major Projects for the Past Three Days Report

Select Project:
S.NO.
Off Take name
Design Discharge
Relaese in cusecs
25/08/2019 24/08/2019 23/08/2019
1 K.E.Main Canal 10600 NA 9432 NA
2 Bandar Regulator 5007 NA 3824 NA
3 K.E.B.Canal 2050 NA 1553 NA
4 Bandar Direct 3035 NA 2271 NA
5 Eluru Regulator 1643 NA 396 NA
6 Ryves Regulator 4250 NA 4306 NA
7 Kankipadu Lock/Weir 1650 NA 1488 NA
8 Upper Pulleru / Lower Pulleru 1200 NA 656 NA
9 East Side Channel 457 NA 446 NA
10 Nidumolu Lock/Weir 325 NA 387 NA
11 Head of Ramarajupalem Channel 370 NA NA NA
12 Veeranki Lock/Weir 637 NA 659 NA
13 Bheemandi Channel 287 NA 304 NA
14 Meduru Channel 228 NA 199 NA
15 Valluripalem Lock/Weir 1739 NA 1529 NA
16 Gurivindapalli Lock /Weir 1727 NA 1465 NA
17 Nimagada Lock/Weir 1470 NA 1181 NA
18 9th Channel 385 NA 295 NA
19 Nagayalanka Head Regulator 540 NA 450 NA
20 Koduru Channel 460 NA 250 NA
21 Komatigunta Lock/Weir 3350 NA NA NA
22 Dosapadu Channel 623 NA NA NA
23 Vyuru Weir 1000 NA NA NA
24 Marrivada Lock/Weir 640 NA NA NA
25 Balliparru Lock/Weir 3300 NA NA NA
26 Polaraju Lock/Weir 645 NA NA NA
27 Bantumalli Lock/Weir 935 NA NA NA
28 Camp Bell Canal 705 NA NA NA
29 Flume U/S of Perikeedu Bridge 825 NA NA NA
30 East Lock (Krishna Eluru Canal) 230 NA NA NA